Data for 03/12/2013

Time Sea-Level Adjusted Pressure Absolute Pressure Temperature Relative Humidity Dew Point   
(mb) (inHg) (mb) (inHg) (C) (F) (%) (C) (F)
00:05 1023 30.21 853 25.19 -5.7 21.7 67 -11 12.2
00:10 1024 30.24 853 25.19 -5.8 21.6 66 -11 12.1
00:15 1024 30.24 853 25.19 -5.7 21.7 67 -11 12.2
00:20 1024 30.24 853 25.19 -5.7 21.7 66 -11 12.1
00:25 1024 30.24 853 25.19 -5.8 21.6 67 -10.9 12.3
00:30 1024 30.24 853 25.19 -5.8 21.5 67 -11 12.2
00:35 1023 30.21 853 25.19 -5.9 21.4 68 -11 12.3
00:40 1023 30.21 853 25.19 -6.1 21.1 68 -11.1 12.1
00:45 1023 30.21 853 25.19 -6.2 20.9 68 -11.1 12
00:50 1023 30.21 853 25.19 -6.2 20.8 68 -11.1 12
00:55 1023 30.21 853 25.19 -6.3 20.7 69 -11.1 12
01:00 1023 30.21 853 25.19 -6.4 20.4 69 -11.2 11.9
01:05 1023 30.21 853 25.19 -6.3 20.6 68 -11.3 11.7
01:10 1023 30.21 853 25.19 -6.2 20.9 68 -11.2 11.9
01:15 1023 30.21 853 25.19 -6.1 20.9 68 -11.2 11.9
01:20 1023 30.21 853 25.19 -6.1 20.9 68 -11.1 12.1
01:25 1023 30.21 853 25.19 -6.2 20.8 69 -11.1 12.1
01:30 1023 30.21 853 25.19 -6.3 20.7 69 -11 12.2
01:35 1023 30.21 853 25.19 -6.4 20.5 70 -11 12.1
01:40 1023 30.21 853 25.19 -6.6 20.2 70 -11.1 12
01:45 1023 30.21 853 25.19 -6.6 20.2 70 -11.1 12
01:50 1023 30.21 853 25.19 -6.7 20 71 -11.2 11.9
01:55 1023 30.21 853 25.19 -6.7 19.9 71 -11.1 12
02:00 1023 30.21 853 25.19 -6.7 19.9 71 -11.2 11.9
02:05 1023 30.21 853 25.19 -6.7 19.9 70 -11.3 11.7
02:10 1023 30.21 852 25.16 -6.6 20.1 70 -11.2 11.9
02:15 1023 30.21 852 25.16 -6.6 20.1 71 -11.1 12
02:20 1023 30.21 852 25.16 -6.7 20 71 -11.1 12
02:25 1023 30.21 852 25.16 -6.7 19.9 71 -11.1 12
02:30 1023 30.21 852 25.16 -6.7 20 71 -11.1 12
02:35 1023 30.21 852 25.16 -6.7 20 71 -11.1 12
02:40 1023 30.21 852 25.16 -6.7 20 71 -11.2 11.9
02:45 1023 30.21 852 25.16 -6.7 19.9 71 -11.2 11.9
02:50 1023 30.21 852 25.16 -6.7 19.9 71 -11.1 12
02:55 1023 30.21 852 25.16 -6.7 19.9 71 -11.1 12
03:00 1023 30.21 852 25.16 -6.7 20 71 -11.2 11.9
03:05 1023 30.21 852 25.16 -6.8 19.7 71 -11.2 11.8
03:10 1023 30.21 852 25.16 -6.8 19.8 71 -11.2 11.9
03:15 1023 30.21 852 25.16 -6.7 19.9 71 -11.1 12
03:20 1023 30.21 852 25.16 -6.6 20.1 71 -11 12.2
03:25 1023 30.21 852 25.16 -6.5 20.2 71 -11 12.2
03:30 1023 30.21 852 25.16 -6.5 20.4 71 -11 12.2
03:35 1023 30.21 852 25.16 -6.5 20.4 71 -10.9 12.3
03:40 1023 30.21 852 25.16 -6.4 20.4 71 -10.9 12.4
03:45 1023 30.21 852 25.16 -6.4 20.6 71 -10.8 12.5
03:50 1023 30.21 852 25.16 -6.3 20.6 71 -10.8 12.5
03:55 1023 30.21 852 25.16 -6.3 20.6 71 -10.8 12.5
04:00 1023 30.21 852 25.16 -6.3 20.7 70 -10.8 12.5
04:05 1023 30.21 852 25.16 -6.3 20.6 71 -10.8 12.6
04:10 1023 30.21 852 25.16 -6.2 20.8 70 -10.8 12.6
04:15 1023 30.21 852 25.16 -6.1 21 70 -10.8 12.6
04:20 1023 30.21 852 25.16 -6.1 21 70 -10.7 12.8
04:25 1023 30.21 852 25.16 -6.1 21 70 -10.6 12.9
04:30 1022 30.18 852 25.16 -6.1 21.1 70 -10.7 12.8
04:35 1022 30.18 852 25.16 -6 21.1 70 -10.6 12.9
04:40 1022 30.18 852 25.16 -6 21.2 70 -10.6 12.8
04:45 1022 30.18 852 25.16 -5.9 21.3 69 -10.6 12.8
04:50 1022 30.18 852 25.16 -5.8 21.5 69 -10.6 12.9
04:55 1022 30.18 852 25.16 -5.9 21.5 69 -10.6 12.9
05:00 1022 30.18 852 25.16 -5.9 21.4 69 -10.6 12.9
05:05 1022 30.18 852 25.16 -6 21.2 69 -10.7 12.7
05:10 1022 30.18 852 25.16 -6 21.2 70 -10.7 12.8
05:15 1022 30.18 851 25.13 -6 21.2 70 -10.7 12.8
05:20 1022 30.18 851 25.13 -6 21.2 70 -10.7 12.8
05:25 1022 30.18 852 25.16 -6 21.3 70 -10.6 12.8
05:30 1022 30.18 852 25.16 -5.9 21.3 69 -10.7 12.7
05:35 1022 30.18 852 25.16 -5.8 21.5 68 -10.8 12.6
05:40 1022 30.18 852 25.16 -5.7 21.8 68 -10.7 12.8
05:45 1022 30.18 852 25.16 -5.6 21.9 68 -10.7 12.8
05:50 1022 30.18 852 25.16 -5.7 21.8 68 -10.7 12.7
05:55 1022 30.18 852 25.16 -5.6 21.9 67 -10.7 12.7
06:00 1022 30.18 852 25.16 -5.5 22.1 67 -10.7 12.7
06:05 1022 30.18 852 25.16 -5.4 22.2 67 -10.6 12.9
06:10 1022 30.18 852 25.16 -5.4 22.3 67 -10.7 12.8
06:15 1022 30.18 852 25.16 -5.3 22.4 67 -10.5 13.1
06:20 1022 30.18 852 25.16 -5.3 22.4 68 -10.4 13.2
06:25 1022 30.18 852 25.16 -5.3 22.4 68 -10.4 13.2
06:30 1022 30.18 852 25.16 -5.4 22.3 68 -10.4 13.3
06:35 1022 30.18 851 25.13 -5.4 22.2 69 -10.3 13.4
06:40 1022 30.18 851 25.13 -5.4 22.2 69 -10.2 13.6
06:45 1022 30.18 851 25.13 -5.4 22.3 68 -10.3 13.4
06:50 1022 30.18 851 25.13 -5.3 22.4 67 -10.5 13.2
06:55 1022 30.18 851 25.13 -5.2 22.6 67 -10.4 13.2
07:00 1022 30.18 851 25.13 -5.1 22.8 66 -10.6 12.9
07:05 1022 30.18 851 25.13 -4.9 23.1 65 -10.6 13
07:10 1022 30.18 851 25.13 -4.8 23.4 64 -10.5 13.1
07:15 1022 30.18 851 25.13 -4.8 23.4 65 -10.5 13.1
07:20 1022 30.18 851 25.13 -4.8 23.3 65 -10.5 13.1
07:25 1022 30.18 851 25.13 -4.7 23.5 64 -10.5 13
07:30 1022 30.18 851 25.13 -4.6 23.7 63 -10.5 13.1
07:35 1022 30.18 851 25.13 -4.4 24.1 64 -10.3 13.5
07:40 1022 30.18 851 25.13 -4.2 24.5 61 -10.5 13
07:45 1022 30.18 851 25.13 -4 24.7 61 -10.4 13.2
07:50 1022 30.18 851 25.13 -3.9 25 61 -10.4 13.2
07:55 1022 30.18 851 25.13 -3.7 25.3 60 -10.3 13.4
08:00 1022 30.18 851 25.13 -3.6 25.6 61 -10 13.9
08:05 1022 30.18 851 25.13 -3.4 26 59 -10.2 13.7
08:10 1022 30.18 851 25.13 -3.3 26.1 58 -10.4 13.2
08:15 1022 30.18 851 25.13 -3.2 26.2 58 -10.3 13.5
08:20 1022 30.18 851 25.13 -3.1 26.4 57 -10.6 13
08:25 1022 30.18 851 25.13 -3.1 26.5 57 -10.4 13.2
08:30 1022 30.18 851 25.13 -3 26.6 57 -10.4 13.4
08:35 1022 30.18 851 25.13 -2.8 27 56 -10.4 13.2
08:40 1022 30.18 851 25.13 -2.7 27.2 55 -10.5 13.1
08:45 1022 30.18 851 25.13 -2.5 27.5 54 -10.5 13.1
08:50 1022 30.18 851 25.13 -2.2 28 51 -11 12.2
08:55 1022 30.18 851 25.13 -1.9 28.6 51 -10.7 12.8
09:00 1022 30.18 851 25.13 -1.7 28.9 50 -10.7 12.7
09:05 1022 30.18 851 25.13 -1.7 28.9 51 -10.6 12.9
09:10 1022 30.18 851 25.13 -1.5 29.3 50 -10.7 12.7
09:15 1022 30.18 851 25.13 -1.2 29.8 48 -10.8 12.6
09:20 1022 30.18 851 25.13 -0.8 30.5 46 -11.1 12
09:25 1022 30.18 851 25.13 -0.6 30.9 45 -11 12.2
09:30 1022 30.18 851 25.13 -0.4 31.3 46 -10.7 12.8
09:35 1022 30.18 851 25.13 -0.1 31.9 44 -11.1 12.1
09:40 1022 30.18 851 25.13 -0.3 31.5 45 -10.8 12.6
09:45 1022 30.18 851 25.13 -0.3 31.5 44 -11.1 12.1
09:50 1022 30.18 851 25.13 0.1 32.1 45 -10.6 12.9
09:55 1022 30.18 851 25.13 0.1 32.2 46 -10.3 13.5
10:00 1022 30.18 851 25.13 0.3 32.6 46 -10.1 13.8
10:05 1022 30.18 851 25.13 0.7 33.3 43 -10.5 13.1
10:10 1022 30.18 851 25.13 0.9 33.6 43 -10.4 13.2
10:15 1022 30.18 851 25.13 0.9 33.7 43 -10.4 13.3
10:20 1022 30.18 851 25.13 1.1 34 43 -10.2 13.7
10:25 1022 30.18 851 25.13 1.7 35.1 40 -10.6 12.9
10:30 1022 30.18 851 25.13 2.1 35.9 38 -10.8 12.6
10:35 1022 30.18 851 25.13 2.5 36.5 37 -10.8 12.5
10:40 1022 30.18 851 25.13 2.8 37 34 -11.7 10.9
10:45 1021 30.15 851 25.13 2.9 37.3 33 -11.7 10.9
10:50 1021 30.15 851 25.13 2.7 36.9 32 -12.3 9.9
10:55 1021 30.15 851 25.13 3 37.4 32 -12.1 10.2
11:00 1021 30.15 851 25.13 3.3 37.9 32 -12.1 10.3
11:05 1021 30.15 851 25.13 3.2 37.8 33 -11.6 11.1
11:10 1021 30.15 851 25.13 3.1 37.6 31 -12.6 9.3
11:15 1021 30.15 851 25.13 3.1 37.6 32 -12 10.3
11:20 1021 30.15 850 25.1 3.2 37.7 32 -12.1 10.2
11:25 1021 30.15 850 25.1 3.5 38.3 32 -11.8 10.8
11:30 1021 30.15 850 25.1 3.6 38.5 30 -12.3 9.9
11:35 1021 30.15 850 25.1 4.3 39.7 30 -12 10.4
11:40 1021 30.15 850 25.1 4.6 40.3 30 -11.7 10.9
11:45 1021 30.15 850 25.1 4.8 40.6 29 -11.7 10.9
11:50 1021 30.15 850 25.1 5.8 42.5 28 -11.5 11.4
11:55 1021 30.15 850 25.1 5.9 42.7 29 -10.8 12.6
12:00 1021 30.15 850 25.1 6.2 43.1 30 -10.2 13.6
12:05 1021 30.15 850 25.1 5.9 42.7 29 -10.9 12.3
12:10 1021 30.15 850 25.1 5.6 42.1 29 -11.1 12
12:15 1021 30.15 850 25.1 5.6 42 29 -11.3 11.7
12:20 1021 30.15 850 25.1 6.1 42.9 29 -10.5 13.1
12:25 1021 30.15 850 25.1 6 42.9 29 -10.8 12.5
12:30 1021 30.15 850 25.1 5.8 42.4 30 -10.7 12.7
12:35 1021 30.15 850 25.1 6.2 43.2 30 -10.2 13.6
12:40 1021 30.15 850 25.1 6.3 43.4 30 -9.9 14.1
12:45 1021 30.15 850 25.1 6.3 43.3 31 -9.8 14.3
12:50 1021 30.15 850 25.1 6.2 43.1 31 -9.8 14.4
12:55 1021 30.15 850 25.1 6.5 43.6 31 -9.5 14.8
13:00 1021 30.15 850 25.1 6 42.8 33 -9 15.9
13:05 1021 30.15 850 25.1 6 42.7 34 -8.8 16.1
13:10 1021 30.15 850 25.1 6.3 43.3 33 -8.8 16.1
13:15 1021 30.15 850 25.1 6.1 43 34 -8.8 16.2
13:20 1020 30.12 850 25.1 6 42.9 35 -8.2 17.2
13:25 1020 30.12 850 25.1 6.3 43.3 36 -7.8 17.9
13:30 1020 30.12 849 25.07 6.5 43.7 34 -8.2 17.3
13:35 1020 30.12 849 25.07 6.5 43.7 35 -7.9 17.8
13:40 1020 30.12 849 25.07 6.7 44.1 36 -7.4 18.7
13:45 1020 30.12 849 25.07 6.7 44.1 35 -7.8 18
13:50 1020 30.12 849 25.07 6.9 44.4 34 -7.8 18
13:55 1020 30.12 849 25.07 7.3 45.1 34 -7.6 18.4
14:00 1020 30.12 849 25.07 7.1 44.7 36 -6.9 19.5
14:05 1020 30.12 849 25.07 7.3 45.2 33 -7.9 17.7
14:10 1020 30.12 849 25.07 7.4 45.3 35 -7 19.5
14:15 1020 30.12 849 25.07 7.5 45.4 34 -7.4 18.6
14:20 1020 30.12 849 25.07 8 46.4 34 -7.1 19.2
14:25 1020 30.12 849 25.07 8.2 46.8 34 -6.8 19.8
14:30 1019 30.09 849 25.07 8.3 46.9 34 -6.7 19.9
14:35 1019 30.09 849 25.07 7.6 45.7 36 -6.7 19.9
14:40 1019 30.09 849 25.07 7.9 46.3 34 -6.9 19.7
14:45 1019 30.09 849 25.07 8 46.4 36 -6.1 21.1
14:50 1019 30.09 849 25.07 8.4 47.1 34 -6.6 20.1
14:55 1019 30.09 849 25.07 9 48.2 34 -6.1 21
15:00 1019 30.09 849 25.07 8.8 47.8 34 -6.1 21
15:05 1019 30.09 848 25.04 8.9 48 34 -6.3 20.7
15:10 1019 30.09 848 25.04 9.3 48.7 33 -6 21.1
15:15 1019 30.09 848 25.04 9.3 48.8 34 -5.9 21.4
15:20 1019 30.09 848 25.04 9.4 48.9 34 -5.7 21.7
15:25 1019 30.09 848 25.04 9.7 49.4 33 -5.6 21.9
15:30 1019 30.09 848 25.04 9.7 49.4 35 -5.2 22.7
15:35 1019 30.09 848 25.04 9.6 49.4 34 -5.5 22.1
15:40 1019 30.09 848 25.04 9.6 49.3 35 -5.1 22.8
15:45 1019 30.09 848 25.04 9.4 48.8 35 -5.2 22.6
15:50 1019 30.09 848 25.04 8.9 48 37 -5.1 22.8
15:55 1019 30.09 848 25.04 9 48.2 36 -5.3 22.5
16:00 1019 30.09 848 25.04 9.2 48.5 36 -5.2 22.7
16:05 1019 30.09 848 25.04 9.1 48.5 37 -4.9 23.1
16:10 1019 30.09 848 25.04 9 48.1 39 -4.1 24.5
16:15 1019 30.09 848 25.04 8.9 48.1 39 -4.4 24.1
16:20 1019 30.09 848 25.04 9.1 48.3 37 -4.8 23.4
16:25 1019 30.09 848 25.04 9.3 48.8 37 -4.5 24
16:30 1019 30.09 848 25.04 9.4 48.9 38 -4.1 24.7
16:35 1019 30.09 848 25.04 9.1 48.4 40 -3.9 25.1
16:40 1019 30.09 848 25.04 9 48.2 40 -3.7 25.3
16:45 1019 30.09 848 25.04 9 48.2 39 -4.1 24.6
16:50 1019 30.09 848 25.04 9 48.3 40 -3.7 25.4
16:55 1019 30.09 848 25.04 8.7 47.7 41 -3.9 25
17:00 1019 30.09 848 25.04 8.7 47.7 39 -4.3 24.3
17:05 1019 30.09 848 25.04 8.8 47.8 40 -4 24.8
17:10 1019 30.09 848 25.04 8.6 47.4 41 -3.8 25.2
17:15 1019 30.09 848 25.04 8.3 47 42 -3.7 25.3
17:20 1019 30.09 848 25.04 8.2 46.8 42 -3.9 25
17:25 1019 30.09 848 25.04 8.2 46.7 42 -3.8 25.1
17:30 1019 30.09 848 25.04 8.1 46.6 42 -3.9 24.9
17:35 1019 30.09 848 25.04 8.1 46.6 42 -4 24.8
17:40 1019 30.09 848 25.04 8.2 46.8 42 -3.9 25
17:45 1019 30.09 848 25.04 8.1 46.6 42 -3.9 24.9
17:50 1019 30.09 848 25.04 8.1 46.5 41 -4.2 24.4
17:55 1019 30.09 848 25.04 8.4 47.1 40 -4.4 24.2
18:00 1019 30.09 848 25.04 8.5 47.3 40 -4.2 24.5
18:05 1019 30.09 848 25.04 8.4 47.1 41 -4.1 24.5
18:10 1019 30.09 848 25.04 8.3 46.9 41 -4.1 24.6
18:15 1019 30.09 848 25.04 8.1 46.5 42 -3.9 25
18:20 1019 30.09 848 25.04 7.9 46.2 42 -4.1 24.6
18:25 1019 30.09 848 25.04 8.1 46.5 41 -4.5 23.8
18:30 1019 30.09 848 25.04 8.2 46.8 40 -4.6 23.8
18:35 1019 30.09 848 25.04 8.4 47 39 -4.8 23.4
18:40 1019 30.09 848 25.04 8.6 47.4 38 -4.8 23.4
18:45 1019 30.09 848 25.04 8.3 47 41 -4.1 24.6
18:50 1019 30.09 848 25.04 8 46.4 40 -4.6 23.7
18:55 1019 30.09 848 25.04 8.2 46.8 39 -4.9 23.2
19:00 1019 30.09 848 25.04 8.3 47 40 -4.5 23.8
19:05 1019 30.09 848 25.04 8.1 46.6 42 -4.1 24.6
19:10 1019 30.09 848 25.04 7.7 45.8 43 -4.2 24.5
19:15 1019 30.09 848 25.04 7.7 45.8 42 -4.3 24.3
19:20 1019 30.09 848 25.04 7.7 45.8 42 -4.3 24.2
19:25 1019 30.09 848 25.04 7.7 45.9 42 -4.4 24.1
19:30 1019 30.09 848 25.04 7.7 45.8 43 -4.1 24.6
19:35 1019 30.09 848 25.04 7.5 45.4 43 -4.2 24.5
19:40 1019 30.09 848 25.04 7.5 45.6 42 -4.7 23.6
19:45 1019 30.09 848 25.04 7.9 46.2 39 -5.1 22.9
19:50 1019 30.09 848 25.04 8.2 46.8 39 -4.9 23.2
19:55 1019 30.09 848 25.04 8.1 46.7 40 -4.8 23.4
20:00 1019 30.09 848 25.04 8 46.5 41 -4.5 23.9
20:05 1019 30.09 848 25.04 7.9 46.1 40 -4.9 23.1
20:10 1019 30.09 848 25.04 8.1 46.6 38 -5.2 22.6
20:15 1019 30.09 848 25.04 8.2 46.7 39 -5 23.1
20:20 1019 30.09 848 25.04 8 46.4 41 -4.4 24.2
20:25 1019 30.09 848 25.04 7.5 45.5 43 -4.3 24.2
20:30 1019 30.09 848 25.04 7.7 45.9 40 -5.1 22.9
20:35 1019 30.09 848 25.04 8 46.5 39 -5.2 22.7
20:40 1019 30.09 848 25.04 8.2 46.8 39 -4.9 23.2
20:45 1019 30.09 848 25.04 8 46.4 41 -4.4 24
20:50 1019 30.09 848 25.04 7.6 45.8 42 -4.3 24.3
20:55 1019 30.09 849 25.07 7.4 45.3 44 -4.1 24.6
21:00 1019 30.09 849 25.07 7.2 45 43 -4.5 23.8
21:05 1019 30.09 849 25.07 7.4 45.3 42 -4.8 23.4
21:10 1019 30.09 849 25.07 7.7 45.8 40 -4.9 23.2
21:15 1019 30.09 849 25.07 7.9 46.1 40 -4.9 23.1
21:20 1019 30.09 849 25.07 7.9 46.3 41 -4.6 23.8
21:25 1019 30.09 849 25.07 7.8 46 41 -4.7 23.6
21:30 1019 30.09 849 25.07 7.7 45.8 42 -4.4 24
21:35 1020 30.12 849 25.07 7.5 45.6 42 -4.5 23.8
21:40 1020 30.12 849 25.07 7.6 45.7 42 -4.5 23.9
21:45 1020 30.12 849 25.07 7.5 45.6 42 -4.6 23.7
21:50 1020 30.12 849 25.07 7.6 45.7 42 -4.6 23.7
21:55 1020 30.12 849 25.07 7.7 45.9 41 -4.7 23.6
22:00 1020 30.12 849 25.07 7.7 45.9 42 -4.4 24
22:05 1020 30.12 849 25.07 7.6 45.7 43 -4.2 24.5
22:10 1020 30.12 849 25.07 7.4 45.2 44 -3.9 24.9
22:15 1020 30.12 849 25.07 6.9 44.5 46 -3.9 24.9
22:20 1020 30.12 849 25.07 6.7 44.1 46 -4 24.7
22:25 1020 30.12 850 25.1 6.6 43.9 47 -4 24.8
22:30 1020 30.12 850 25.1 6.7 44 46 -4.2 24.5
22:35 1020 30.12 849 25.07 6.9 44.4 45 -4.3 24.3
22:40 1020 30.12 850 25.1 7 44.6 45 -4.3 24.3
22:45 1020 30.12 850 25.1 7 44.6 44 -4.5 23.9
22:50 1020 30.12 850 25.1 7.2 44.9 43 -4.4 24
22:55 1020 30.12 850 25.1 7.3 45.1 43 -4.6 23.8
23:00 1020 30.12 849 25.07 7.3 45.1 43 -4.3 24.2
23:05 1020 30.12 849 25.07 7.1 44.8 44 -4.2 24.4
23:10 1020 30.12 849 25.07 7 44.5 45 -4.3 24.3
23:15 1020 30.12 850 25.1 7 44.6 45 -4.3 24.3
23:20 1020 30.12 850 25.1 7 44.5 46 -3.9 25
23:25 1021 30.15 850 25.1 6.7 44.1 46 -4 24.8
23:30 1021 30.15 850 25.1 6.7 44.1 47 -3.9 25
23:35 1021 30.15 850 25.1 6.7 44 47 -3.8 25.2
23:40 1021 30.15 850 25.1 6.5 43.6 47 -4 24.9
23:45 1021 30.15 850 25.1 6.4 43.6 47 -4 24.8
23:50 1021 30.15 850 25.1 6.5 43.7 47 -3.9 24.9
23:55 1021 30.15 850 25.1 6.6 43.8 47 -4.1 24.7
24:00 1021 30.15 850 25.1 6.7 44 47 -4 24.9